createdAt,value
2022-08-22T00:01:44.186Z,13.75
2022-08-22T00:03:55.019Z,13.82
2022-08-22T00:06:03.602Z,12.90
2022-08-22T00:08:27.880Z,13.18
2022-08-22T00:10:45.633Z,13.32
2022-08-22T00:12:51.079Z,12.90
2022-08-22T00:15:06.752Z,13.40
2022-08-22T00:17:23.639Z,13.90
2022-08-22T00:19:44.392Z,14.20
2022-08-22T00:22:02.063Z,13.57
2022-08-22T00:24:06.645Z,14.23
2022-08-22T00:26:15.383Z,13.95
2022-08-22T00:28:29.754Z,13.57
2022-08-22T00:30:34.934Z,13.98
2022-08-22T00:32:42.112Z,13.98
2022-08-22T00:34:43.577Z,14.48
2022-08-22T00:36:52.051Z,14.23
2022-08-22T00:38:58.711Z,13.82
2022-08-22T00:41:00.276Z,14.07
2022-08-22T00:43:31.489Z,14.65
2022-08-22T00:45:41.732Z,13.90
2022-08-22T00:47:46.338Z,13.85
2022-08-22T00:49:47.713Z,14.15
2022-08-22T00:52:17.547Z,14.73
2022-08-22T00:54:37.007Z,14.80
2022-08-22T00:56:57.120Z,16.60
2022-08-22T00:58:59.649Z,14.48
2022-08-22T01:01:26.138Z,14.35
2022-08-22T01:03:40.406Z,14.52
2022-08-22T01:05:47.080Z,13.88
2022-08-22T01:07:57.882Z,14.25
2022-08-22T01:10:20.142Z,14.38
2022-08-22T01:12:24.818Z,13.73
2022-08-22T01:14:45.563Z,14.93
2022-08-22T01:16:55.967Z,14.98
2022-08-22T01:19:05.880Z,24.33
2022-08-22T01:21:24.076Z,26.02
2022-08-22T01:23:44.735Z,31.48
2022-08-22T01:26:05.454Z,31.35
2022-08-22T01:28:37.836Z,31.70
2022-08-22T01:30:58.268Z,31.63
2022-08-22T01:33:10.082Z,30.83
2022-08-22T01:35:35.444Z,29.75
2022-08-22T01:37:46.677Z,28.58
2022-08-22T01:40:07.355Z,27.08
2022-08-22T01:42:20.959Z,24.67
2022-08-22T01:44:22.460Z,21.85
2022-08-22T01:46:37.065Z,20.13
2022-08-22T01:48:43.778Z,19.08
2022-08-22T01:50:52.899Z,18.67
2022-08-22T01:53:24.564Z,18.50
2022-08-22T01:55:41.779Z,16.50
2022-08-22T01:57:52.087Z,16.63
2022-08-22T02:00:06.248Z,16.90
2022-08-22T02:02:07.656Z,16.38
2022-08-22T02:04:11.875Z,16.17
2022-08-22T02:06:16.368Z,16.38
2022-08-22T02:08:36.524Z,15.38
2022-08-22T02:10:56.911Z,15.75
2022-08-22T02:12:58.552Z,16.23
2022-08-22T02:15:14.681Z,16.25
2022-08-22T02:17:20.131Z,16.02
2022-08-22T02:19:26.716Z,16.60
2022-08-22T02:21:31.936Z,16.38
2022-08-22T02:23:36.229Z,16.25
2022-08-22T02:25:52.184Z,15.90
2022-08-22T02:27:58.487Z,15.32
2022-08-22T02:30:11.546Z,15.57
2022-08-22T02:32:24.803Z,15.40
2022-08-22T02:34:52.924Z,15.50
2022-08-22T02:37:02.513Z,15.30
2022-08-22T02:39:07.970Z,15.30
2022-08-22T02:41:24.228Z,15.25
2022-08-22T02:43:49.666Z,14.48
2022-08-22T02:46:05.639Z,14.68
2022-08-22T02:48:11.747Z,14.75
2022-08-22T02:50:18.096Z,14.90
2022-08-22T02:52:25.782Z,14.52
2022-08-22T02:54:39.294Z,14.82
2022-08-22T02:56:44.709Z,14.88
2022-08-22T02:59:00.069Z,14.60
2022-08-22T03:01:20.893Z,14.20
2022-08-22T03:03:24.995Z,13.98
2022-08-22T03:05:28.624Z,14.65
2022-08-22T03:07:40.727Z,15.65
2022-08-22T03:09:42.261Z,14.35
2022-08-22T03:11:46.240Z,14.07
2022-08-22T03:14:07.544Z,15.13
2022-08-22T03:16:27.639Z,14.75
2022-08-22T03:18:48.511Z,14.65
2022-08-22T03:21:09.341Z,14.25
2022-08-22T03:23:16.726Z,14.65
2022-08-22T03:25:35.890Z,14.38
2022-08-22T03:27:52.149Z,14.13
2022-08-22T03:29:56.792Z,14.63
2022-08-22T03:32:04.491Z,13.88
2022-08-22T03:34:15.063Z,13.38
2022-08-22T03:36:16.533Z,15.55
2022-08-22T03:38:33.258Z,13.82
2022-08-22T03:40:45.907Z,14.43
2022-08-22T03:42:50.850Z,14.02
2022-08-22T03:44:59.567Z,14.77
2022-08-22T03:47:01.202Z,14.55
2022-08-22T03:49:13.921Z,14.27
2022-08-22T03:51:33.587Z,13.90
2022-08-22T03:53:41.340Z,14.45
2022-08-22T03:56:02.700Z,14.07
2022-08-22T03:58:27.912Z,14.13
2022-08-22T04:00:33.508Z,14.55
2022-08-22T04:02:42.835Z,14.25
2022-08-22T04:05:12.988Z,13.52
2022-08-22T04:07:35.816Z,14.13
2022-08-22T04:09:43.576Z,14.77
2022-08-22T04:11:48.264Z,15.15
2022-08-22T04:13:58.508Z,15.20
2022-08-22T04:16:03.073Z,14.82
2022-08-22T04:18:24.186Z,15.23
2022-08-22T04:20:44.300Z,14.73
2022-08-22T04:22:54.670Z,14.45
2022-08-22T04:25:07.561Z,13.70
2022-08-22T04:29:21.216Z,14.00
2022-08-22T04:31:27.790Z,14.73
2022-08-22T04:33:33.948Z,15.23
2022-08-22T04:35:45.057Z,15.45
2022-08-22T04:37:51.686Z,14.23
2022-08-22T04:39:59.564Z,13.73
2022-08-22T04:42:32.371Z,14.65
2022-08-22T04:44:43.360Z,14.45
2022-08-22T04:46:47.214Z,14.70
2022-08-22T04:49:01.730Z,13.98
2022-08-22T04:51:18.610Z,12.65
2022-08-22T04:53:39.062Z,12.65
2022-08-22T04:55:49.467Z,12.18
2022-08-22T04:57:57.831Z,12.45
2022-08-22T05:00:03.640Z,11.88
2022-08-22T05:02:08.539Z,12.75
2022-08-22T05:04:19.959Z,12.38
2022-08-22T05:06:23.456Z,12.13
2022-08-22T05:08:27.127Z,11.63
2022-08-22T05:10:35.760Z,11.20
2022-08-22T05:12:39.838Z,11.27
2022-08-22T05:14:49.646Z,11.25
2022-08-22T05:16:56.667Z,11.13
2022-08-22T05:19:02.900Z,11.25
2022-08-22T05:21:07.599Z,10.70
2022-08-22T05:23:17.005Z,11.35
2022-08-22T05:25:21.833Z,10.43
2022-08-22T05:27:32.039Z,10.65
2022-08-22T05:29:34.080Z,10.50
2022-08-22T05:31:39.102Z,10.43
2022-08-22T05:33:42.244Z,10.35
2022-08-22T05:35:50.086Z,9.73
2022-08-22T05:37:54.983Z,10.38
2022-08-22T05:39:58.787Z,9.57
2022-08-22T05:42:02.113Z,9.70
2022-08-22T05:44:04.532Z,9.00
2022-08-22T05:46:07.820Z,9.00
2022-08-22T05:48:18.739Z,9.13
2022-08-22T05:50:45.606Z,10.18
2022-08-22T05:53:03.011Z,8.85
2022-08-22T05:55:17.088Z,8.93
2022-08-22T05:57:23.723Z,8.95
2022-08-22T05:59:27.789Z,9.07
2022-08-22T06:01:37.813Z,9.05
2022-08-22T06:03:57.199Z,9.63
2022-08-22T06:06:02.857Z,9.80
2022-08-22T06:08:08.057Z,9.30
2022-08-22T06:10:18.931Z,10.73
2022-08-22T06:12:22.705Z,9.15
2022-08-22T06:14:30.992Z,10.90
2022-08-22T06:17:00.360Z,10.93
2022-08-22T06:19:03.199Z,8.70
2022-08-22T06:21:11.368Z,8.98
2022-08-22T06:23:17.863Z,9.73
2022-08-22T06:25:23.047Z,9.27
2022-08-22T06:27:26.979Z,9.63
2022-08-22T06:29:45.583Z,9.60
2022-08-22T06:31:48.187Z,9.65
2022-08-22T06:33:55.998Z,8.82
2022-08-22T06:36:22.603Z,8.80
2022-08-22T06:38:29.082Z,8.73
2022-08-22T06:40:30.949Z,8.68
2022-08-22T06:42:33.506Z,8.68
2022-08-22T06:44:37.703Z,8.68
2022-08-22T06:46:39.628Z,9.48
2022-08-22T06:48:41.491Z,8.60
2022-08-22T06:52:52.144Z,12.20
2022-08-22T06:55:00.198Z,8.88
2022-08-22T06:57:03.169Z,8.68
2022-08-22T06:59:07.751Z,7.75
2022-08-22T07:01:12.783Z,8.25
2022-08-22T07:03:15.020Z,7.90
2022-08-22T07:05:19.333Z,7.93
2022-08-22T07:07:24.745Z,7.75
2022-08-22T07:09:28.558Z,8.10
2022-08-22T07:11:32.528Z,8.07
2022-08-22T07:13:35.791Z,7.50
2022-08-22T07:15:41.112Z,8.10
2022-08-22T07:17:51.346Z,8.07
2022-08-22T07:19:56.204Z,8.70
2022-08-22T07:21:59.071Z,8.82
2022-08-22T07:24:01.359Z,8.32
2022-08-22T07:26:22.496Z,8.10
2022-08-22T07:28:37.097Z,9.05
2022-08-22T07:31:00.121Z,8.75
2022-08-22T07:33:24.903Z,8.65
2022-08-22T07:35:41.969Z,8.77
2022-08-22T07:37:58.491Z,8.90
2022-08-22T07:40:16.474Z,9.27
2022-08-22T07:42:21.605Z,8.70
2022-08-22T07:44:25.464Z,8.27
2022-08-22T07:46:46.360Z,7.95
2022-08-22T07:49:08.758Z,8.88
2022-08-22T07:51:17.576Z,9.38
2022-08-22T07:53:39.322Z,9.20
2022-08-22T07:55:49.596Z,7.72
2022-08-22T07:57:56.660Z,9.20
2022-08-22T07:59:59.907Z,9.45
2022-08-22T08:02:04.895Z,9.07
2022-08-22T08:04:09.041Z,9.18
2022-08-22T08:06:10.811Z,13.57
2022-08-22T08:10:20.021Z,8.35
2022-08-22T08:12:33.002Z,8.80
2022-08-22T08:14:37.288Z,8.32
2022-08-22T08:17:02.437Z,8.60
2022-08-22T08:19:04.408Z,8.77
2022-08-22T08:21:08.866Z,8.25
2022-08-22T08:23:12.694Z,8.77
2022-08-22T08:25:22.795Z,8.50
2022-08-22T08:27:44.700Z,8.30
2022-08-22T08:29:56.442Z,7.88
2022-08-22T08:31:59.095Z,8.88
2022-08-22T08:34:05.320Z,7.90
2022-08-22T08:36:12.748Z,8.43
2022-08-22T08:38:18.445Z,7.85
2022-08-22T08:40:32.672Z,7.70
2022-08-22T08:43:10.646Z,9.05
2022-08-22T08:45:21.178Z,8.30
2022-08-22T08:47:35.133Z,7.88
2022-08-22T08:49:42.842Z,8.35
2022-08-22T08:52:02.950Z,8.02
2022-08-22T08:54:09.011Z,8.35
2022-08-22T08:56:35.401Z,7.10
2022-08-22T08:58:41.133Z,7.85
2022-08-22T09:00:52.431Z,7.43
2022-08-22T09:03:00.602Z,7.32
2022-08-22T09:05:12.471Z,7.60
2022-08-22T09:07:39.943Z,7.85
2022-08-22T09:10:00.531Z,6.90
2022-08-22T09:12:08.418Z,7.80
2022-08-22T09:14:21.307Z,8.50
2022-08-22T09:16:29.909Z,7.70
2022-08-22T09:18:31.361Z,8.02
2022-08-22T09:20:51.336Z,7.03
2022-08-22T09:23:20.118Z,8.00
2022-08-22T09:25:23.845Z,7.53
2022-08-22T09:27:30.817Z,7.68
2022-08-22T09:29:54.767Z,7.75
2022-08-22T09:32:17.089Z,7.60
2022-08-22T09:34:29.284Z,8.13
2022-08-22T09:36:37.727Z,7.47
2022-08-22T09:38:39.137Z,6.90
2022-08-22T09:40:46.186Z,7.70
2022-08-22T09:43:08.695Z,8.32
2022-08-22T09:45:24.624Z,8.45
2022-08-22T09:47:33.203Z,7.70
2022-08-22T09:49:43.509Z,8.23
2022-08-22T09:51:48.733Z,7.70
2022-08-22T09:53:57.171Z,8.30
2022-08-22T09:56:15.367Z,7.22
2022-08-22T09:58:36.613Z,7.43
2022-08-22T10:02:58.703Z,7.57
2022-08-22T10:05:04.007Z,7.22
2022-08-22T10:07:26.941Z,7.15
2022-08-22T10:09:35.243Z,7.55
2022-08-22T10:11:42.295Z,7.65
2022-08-22T10:13:56.615Z,7.38
2022-08-22T10:16:03.273Z,7.13
2022-08-22T10:18:23.368Z,7.38
2022-08-22T10:20:29.931Z,7.45
2022-08-22T10:22:31.891Z,7.45
2022-08-22T10:24:43.918Z,6.93
2022-08-22T10:26:51.024Z,7.60
2022-08-22T10:28:59.507Z,7.55
2022-08-22T10:31:08.403Z,8.00
2022-08-22T10:33:23.488Z,7.35
2022-08-22T10:35:29.447Z,7.35
2022-08-22T10:37:39.466Z,8.70
2022-08-22T10:39:52.804Z,6.90
2022-08-22T10:41:59.812Z,6.70
2022-08-22T10:44:17.827Z,6.40
2022-08-22T10:46:24.794Z,7.22
2022-08-22T10:48:35.007Z,6.72
2022-08-22T10:50:36.751Z,6.70
2022-08-22T10:52:46.811Z,7.18
2022-08-22T10:54:52.890Z,6.90
2022-08-22T10:56:59.305Z,7.90
2022-08-22T10:59:23.733Z,6.97
2022-08-22T11:01:37.845Z,7.50
2022-08-22T11:04:01.083Z,6.65
2022-08-22T11:06:21.432Z,7.60
2022-08-22T11:08:49.740Z,6.82
2022-08-22T11:10:52.116Z,7.80
2022-08-22T11:13:12.375Z,7.32
2022-08-22T11:15:34.400Z,6.97
2022-08-22T11:17:54.144Z,7.77
2022-08-22T11:20:14.815Z,8.00
2022-08-22T11:22:26.032Z,7.50
2022-08-22T11:24:34.742Z,7.53
2022-08-22T11:26:46.818Z,7.80
2022-08-22T11:29:13.219Z,7.72
2022-08-22T11:31:22.445Z,6.53
2022-08-22T11:33:46.129Z,7.78
2022-08-22T11:35:55.996Z,6.90
2022-08-22T11:37:57.631Z,7.53
2022-08-22T11:40:18.180Z,7.87
2022-08-22T11:42:38.762Z,7.95
2022-08-22T11:44:53.985Z,8.00
2022-08-22T11:46:57.226Z,7.85
2022-08-22T11:48:59.757Z,8.15
2022-08-22T11:51:24.640Z,8.00
2022-08-22T11:53:52.861Z,8.05
2022-08-22T11:56:00.336Z,8.25
2022-08-22T11:58:19.853Z,7.65
2022-08-22T12:00:23.107Z,8.23
2022-08-22T12:02:40.480Z,8.32
2022-08-22T12:04:46.259Z,7.40
2022-08-22T12:07:07.696Z,8.00
2022-08-22T12:09:12.864Z,7.80
2022-08-22T12:11:22.183Z,8.57
2022-08-22T12:13:35.021Z,8.77
2022-08-22T12:15:46.457Z,8.10
2022-08-22T12:18:01.652Z,8.23
2022-08-22T12:20:17.554Z,7.50
2022-08-22T12:22:39.443Z,8.15
2022-08-22T12:24:48.863Z,7.90
2022-08-22T12:26:59.898Z,8.73
2022-08-22T12:29:15.508Z,8.05
2022-08-22T12:31:41.810Z,7.95
2022-08-22T12:33:43.687Z,7.85
2022-08-22T12:35:51.706Z,8.50
2022-08-22T12:38:02.036Z,7.40
2022-08-22T12:40:09.710Z,7.85
2022-08-22T12:42:20.034Z,7.63
2022-08-22T12:44:28.024Z,7.55
2022-08-22T12:46:29.824Z,8.10
2022-08-22T12:48:45.076Z,8.70
2022-08-22T12:50:51.705Z,8.07
2022-08-22T12:53:06.131Z,7.40
2022-08-22T12:55:25.016Z,8.15
2022-08-22T12:57:42.778Z,8.05
2022-08-22T12:59:48.963Z,7.68
2022-08-22T13:01:53.608Z,7.85
2022-08-22T13:04:01.246Z,8.63
2022-08-22T13:06:04.433Z,7.95
2022-08-22T13:08:12.664Z,8.13
2022-08-22T13:10:14.192Z,9.13
2022-08-22T13:12:22.693Z,8.95
2022-08-22T13:14:26.144Z,8.10
2022-08-22T13:16:36.534Z,8.27
2022-08-22T13:18:46.775Z,7.60
2022-08-22T13:20:56.642Z,7.07
2022-08-22T13:22:59.653Z,7.75
2022-08-22T13:25:04.958Z,7.78
2022-08-22T13:27:15.262Z,9.05
2022-08-22T13:29:26.816Z,7.75
2022-08-22T13:31:30.219Z,7.90
2022-08-22T13:33:33.652Z,8.05
2022-08-22T13:35:52.168Z,7.40
2022-08-22T13:38:14.563Z,7.35
2022-08-22T13:40:25.265Z,7.53
2022-08-22T13:42:30.858Z,7.57
2022-08-22T13:44:41.596Z,7.13
2022-08-22T13:47:12.905Z,8.02
2022-08-22T13:49:10.087Z,8.45
2022-08-22T13:51:14.402Z,7.90
2022-08-22T13:53:26.589Z,8.57
2022-08-22T13:55:35.775Z,8.07
2022-08-22T13:57:52.025Z,8.35
2022-08-22T14:00:10.700Z,8.07
2022-08-22T14:02:18.087Z,8.55
2022-08-22T14:04:34.749Z,8.50
2022-08-22T14:07:01.400Z,8.30
2022-08-22T14:09:14.935Z,8.60
2022-08-22T14:11:28.001Z,7.65
2022-08-22T14:13:42.132Z,8.48
2022-08-22T14:15:45.476Z,9.23
2022-08-22T14:17:48.415Z,8.55
2022-08-22T14:19:59.799Z,8.20
2022-08-22T14:24:10.101Z,8.60
2022-08-22T14:26:22.946Z,8.52
2022-08-22T14:28:35.714Z,8.80
2022-08-22T14:30:59.435Z,8.40
2022-08-22T14:33:13.000Z,8.40
2022-08-22T14:35:21.809Z,8.52
2022-08-22T14:37:28.709Z,8.30
2022-08-22T14:39:43.659Z,8.77
2022-08-22T14:41:52.827Z,8.52
2022-08-22T14:44:13.375Z,10.18
2022-08-22T14:46:19.496Z,8.65
2022-08-22T14:48:31.438Z,9.00
2022-08-22T14:50:43.359Z,8.80
2022-08-22T14:52:48.863Z,8.20
2022-08-22T14:55:06.260Z,8.45
2022-08-22T14:57:14.158Z,8.82
2022-08-22T14:59:24.758Z,9.43
2022-08-22T15:01:29.748Z,9.15
2022-08-22T15:03:37.344Z,8.82
2022-08-22T15:05:45.634Z,8.27
2022-08-22T15:08:05.357Z,8.73
2022-08-22T15:10:20.805Z,9.55
2022-08-22T15:12:28.859Z,8.70
2022-08-22T15:14:44.311Z,8.85
2022-08-22T15:16:56.009Z,9.02
2022-08-22T15:18:57.804Z,8.70
2022-08-22T15:21:10.270Z,8.73
2022-08-22T15:23:23.396Z,8.30
2022-08-22T15:25:30.171Z,8.57
2022-08-22T15:27:35.631Z,8.48
2022-08-22T15:29:46.720Z,8.43
2022-08-22T15:31:56.461Z,9.52
2022-08-22T15:34:09.763Z,9.45
2022-08-22T15:36:11.352Z,8.85
2022-08-22T15:38:28.925Z,8.40
2022-08-22T15:40:33.500Z,9.20
2022-08-22T15:42:43.422Z,8.52
2022-08-22T15:44:46.809Z,9.00
2022-08-22T15:46:51.314Z,9.90
2022-08-22T15:48:54.588Z,9.05
2022-08-22T15:51:03.814Z,9.70
2022-08-22T15:53:09.647Z,9.05
2022-08-22T15:55:26.591Z,8.45
2022-08-22T15:57:28.209Z,9.82
2022-08-22T15:59:53.725Z,9.43
2022-08-22T16:01:58.947Z,9.00
2022-08-22T16:04:12.320Z,9.10
2022-08-22T16:06:15.356Z,9.23
2022-08-22T16:08:25.357Z,9.63
2022-08-22T16:10:30.863Z,8.65
2022-08-22T16:12:35.415Z,8.88
2022-08-22T16:14:36.920Z,8.63
2022-08-22T16:16:52.911Z,9.85
2022-08-22T16:18:54.318Z,8.45
2022-08-22T16:20:56.174Z,8.82
2022-08-22T16:22:57.941Z,9.10
2022-08-22T16:25:00.932Z,11.68
2022-08-22T16:27:18.810Z,10.00
2022-08-22T16:29:20.460Z,9.63
2022-08-22T16:31:33.740Z,8.50
2022-08-22T16:33:37.436Z,9.00
2022-08-22T16:35:57.733Z,9.68
2022-08-22T16:38:01.143Z,9.32
2022-08-22T16:40:13.037Z,9.15
2022-08-22T16:42:22.718Z,9.02
2022-08-22T16:44:30.081Z,8.75
2022-08-22T16:46:37.196Z,8.75
2022-08-22T16:48:39.538Z,8.52
2022-08-22T16:50:41.760Z,8.73
2022-08-22T16:53:01.889Z,8.10
2022-08-22T16:55:26.562Z,8.23
2022-08-22T16:57:37.162Z,8.73
2022-08-22T16:59:54.471Z,8.98
2022-08-22T17:01:56.135Z,8.32
2022-08-22T17:04:23.771Z,8.90
2022-08-22T17:06:40.535Z,9.68
2022-08-22T17:08:42.281Z,9.40
2022-08-22T17:10:51.199Z,8.93
2022-08-22T17:13:03.191Z,8.25
2022-08-22T17:15:17.254Z,9.73
2022-08-22T17:17:26.703Z,8.80
2022-08-22T17:19:39.788Z,9.27
2022-08-22T17:24:06.529Z,9.02
2022-08-22T17:26:27.255Z,8.82
2022-08-22T17:28:34.651Z,8.80
2022-08-22T17:30:56.609Z,9.05
2022-08-22T17:33:10.361Z,9.15
2022-08-22T17:35:20.826Z,9.65
2022-08-22T17:37:31.275Z,8.88
2022-08-22T17:39:35.989Z,8.57
2022-08-22T17:41:54.258Z,11.10
2022-08-22T17:44:00.026Z,9.55
2022-08-22T17:46:07.554Z,9.73
2022-08-22T17:48:20.542Z,9.35
2022-08-22T17:50:40.102Z,9.15
2022-08-22T17:52:46.797Z,12.18
2022-08-22T17:54:52.346Z,9.98
2022-08-22T17:57:05.274Z,9.13
2022-08-22T17:59:11.100Z,9.65
2022-08-22T18:01:34.387Z,10.45
2022-08-22T18:03:38.809Z,9.95
2022-08-22T18:05:54.689Z,9.68
2022-08-22T18:10:46.064Z,9.93
2022-08-22T18:13:07.099Z,10.18
2022-08-22T18:15:13.315Z,10.52
2022-08-22T18:17:19.704Z,11.88
2022-08-22T18:19:21.195Z,10.25
2022-08-22T18:21:43.236Z,11.15
2022-08-22T18:23:47.341Z,10.93
2022-08-22T18:26:13.619Z,10.55
2022-08-22T18:28:25.512Z,10.80
2022-08-22T18:30:36.786Z,10.65
2022-08-22T18:32:41.282Z,10.43
2022-08-22T18:34:48.188Z,11.25
2022-08-22T18:36:54.914Z,10.25
2022-08-22T18:39:20.370Z,10.85
2022-08-22T18:41:26.169Z,19.48
2022-08-22T18:43:38.642Z,10.85
2022-08-22T18:45:46.158Z,11.20
2022-08-22T18:47:54.375Z,10.43
2022-08-22T18:49:56.428Z,12.52
2022-08-22T18:52:10.151Z,12.23
2022-08-22T18:54:11.809Z,11.60
2022-08-22T18:56:19.251Z,12.07
2022-08-22T18:58:39.531Z,10.55
2022-08-22T19:00:41.257Z,10.55
2022-08-22T19:03:12.791Z,11.60
2022-08-22T19:05:23.394Z,11.50
2022-08-22T19:07:32.124Z,18.42
2022-08-22T19:09:48.760Z,12.68
2022-08-22T19:12:07.338Z,22.17
2022-08-22T19:14:18.830Z,19.58
2022-08-22T19:16:36.585Z,12.30
2022-08-22T19:18:44.415Z,14.80
2022-08-22T19:21:24.679Z,17.20
2022-08-22T19:23:32.311Z,16.30
2022-08-22T19:25:33.940Z,15.45
2022-08-22T19:27:41.256Z,12.57
2022-08-22T19:29:43.094Z,13.48
2022-08-22T19:31:49.293Z,16.38
2022-08-22T19:34:11.125Z,14.43
2022-08-22T19:36:29.688Z,15.38
2022-08-22T19:38:50.670Z,13.95
2022-08-22T19:40:55.451Z,12.38
2022-08-22T19:43:01.547Z,12.70
2022-08-22T19:45:07.899Z,12.40
2022-08-22T19:47:17.140Z,13.02
2022-08-22T19:49:30.439Z,11.98
2022-08-22T19:53:34.496Z,11.82
2022-08-22T19:55:37.279Z,13.40
2022-08-22T19:57:47.410Z,12.20
2022-08-22T19:59:53.041Z,13.20
2022-08-22T20:01:56.027Z,13.23
2022-08-22T20:04:02.491Z,16.13
2022-08-22T20:06:05.397Z,13.57
2022-08-22T20:08:22.082Z,13.60
2022-08-22T20:10:48.441Z,12.05
2022-08-22T20:12:59.625Z,12.38
2022-08-22T20:15:11.426Z,13.18
2022-08-22T20:17:25.440Z,12.90
2022-08-22T20:19:38.853Z,13.55
2022-08-22T20:21:58.787Z,14.68
2022-08-22T20:24:04.433Z,13.35
2022-08-22T20:26:07.887Z,13.48
2022-08-22T20:28:13.677Z,13.25
2022-08-22T20:30:25.708Z,13.68
2022-08-22T20:32:28.249Z,14.70
2022-08-22T20:34:32.471Z,13.90
2022-08-22T20:36:35.018Z,13.10
2022-08-22T20:38:55.766Z,14.27
2022-08-22T20:41:11.395Z,14.10
2022-08-22T20:43:23.975Z,14.07
2022-08-22T20:45:27.998Z,14.23
2022-08-22T20:47:41.173Z,14.45
2022-08-22T20:49:45.872Z,14.88
2022-08-22T20:51:56.256Z,14.63
2022-08-22T20:53:59.682Z,13.82
2022-08-22T20:56:01.830Z,14.95
2022-08-22T20:58:05.760Z,13.30
2022-08-22T21:00:12.761Z,13.98
2022-08-22T21:02:18.833Z,14.95
2022-08-22T21:04:21.287Z,14.20
2022-08-22T21:06:34.968Z,14.25
2022-08-22T21:08:36.613Z,14.90
2022-08-22T21:10:57.457Z,13.98
2022-08-22T21:13:08.321Z,14.15
2022-08-22T21:15:10.028Z,14.60
2022-08-22T21:17:18.733Z,15.75
2022-08-22T21:19:23.813Z,14.98
2022-08-22T21:21:28.136Z,14.85
2022-08-22T21:23:31.128Z,14.30
2022-08-22T21:25:47.642Z,15.18
2022-08-22T21:27:49.581Z,15.55
2022-08-22T21:29:52.253Z,14.95
2022-08-22T21:31:56.176Z,14.63
2022-08-22T21:34:06.180Z,16.92
2022-08-22T21:36:09.693Z,14.43
2022-08-22T21:38:16.299Z,15.75
2022-08-22T21:40:19.633Z,15.32
2022-08-22T21:42:27.170Z,15.60
2022-08-22T21:44:33.129Z,15.15
2022-08-22T21:46:34.620Z,14.55
2022-08-22T21:48:38.785Z,16.20
2022-08-22T21:50:41.317Z,15.20
2022-08-22T21:53:00.759Z,14.57
2022-08-22T21:55:21.083Z,15.70
2022-08-22T21:57:33.855Z,16.17
2022-08-22T21:59:52.287Z,15.10
2022-08-22T22:02:17.161Z,17.40
2022-08-22T22:04:18.811Z,15.77
2022-08-22T22:06:20.298Z,16.25
2022-08-22T22:08:22.148Z,16.17
2022-08-22T22:10:23.698Z,16.02
2022-08-22T22:12:25.507Z,16.77
2022-08-22T22:14:27.552Z,16.77
2022-08-22T22:16:29.721Z,16.30
2022-08-22T22:18:31.876Z,16.80
2022-08-22T22:20:33.938Z,16.48
2022-08-22T22:22:36.928Z,16.55
2022-08-22T22:24:39.931Z,15.75
2022-08-22T22:26:41.671Z,15.53
2022-08-22T22:28:47.436Z,16.38
2022-08-22T22:30:53.048Z,16.98
2022-08-22T22:32:54.702Z,16.60
2022-08-22T22:34:56.344Z,16.63
2022-08-22T22:36:57.853Z,17.27
2022-08-22T22:38:59.552Z,17.17
2022-08-22T22:41:01.221Z,18.05
2022-08-22T22:43:03.313Z,16.33
2022-08-22T22:45:05.404Z,16.92
2022-08-22T22:47:07.045Z,16.67
2022-08-22T22:49:08.451Z,16.77
2022-08-22T22:51:10.870Z,17.65
2022-08-22T22:53:12.381Z,17.40
2022-08-22T22:55:24.129Z,16.85
2022-08-22T22:57:26.485Z,17.70
2022-08-22T22:59:30.264Z,16.95
2022-08-22T23:01:34.842Z,17.30
2022-08-22T23:03:36.692Z,17.13
2022-08-22T23:05:38.108Z,15.77
2022-08-22T23:07:39.719Z,16.85
2022-08-22T23:09:45.015Z,17.52
2022-08-22T23:11:47.882Z,16.55
2022-08-22T23:13:49.392Z,16.52
2022-08-22T23:15:51.092Z,18.08
2022-08-22T23:17:52.684Z,17.13
2022-08-22T23:19:54.175Z,17.58
2022-08-22T23:21:57.155Z,17.67
2022-08-22T23:23:59.608Z,17.48
2022-08-22T23:26:01.044Z,17.13
2022-08-22T23:28:03.010Z,16.58
2022-08-22T23:30:05.537Z,16.38
2022-08-22T23:32:07.628Z,17.80
2022-08-22T23:34:13.654Z,17.27
2022-08-22T23:36:18.623Z,16.70
2022-08-22T23:38:20.231Z,18.45
2022-08-22T23:40:23.900Z,17.73
2022-08-22T23:42:25.599Z,18.00
2022-08-22T23:44:28.724Z,18.58
2022-08-22T23:46:31.233Z,19.63
2022-08-22T23:48:32.799Z,18.58
2022-08-22T23:50:34.712Z,18.33
2022-08-22T23:52:36.326Z,17.95
2022-08-22T23:54:37.809Z,18.33
2022-08-22T23:56:43.817Z,18.10
2022-08-22T23:58:45.422Z,19.77
